sensor_id;sensor_type;location;lat;lon;timestamp;noise_LAeq;noise_LA_min;noise_LA_max;noise_LA01;noise_LA95
52872;Laerm;40124;52.198;9.902;2023-12-22T00:00:55;52.84;45.93;60.81;;
52872;Laerm;40124;52.198;9.902;2023-12-22T00:03:20;55.28;44.11;75.36;;
52872;Laerm;40124;52.198;9.902;2023-12-22T00:05:46;53.25;43.90;67.32;;
52872;Laerm;40124;52.198;9.902;2023-12-22T00:08:11;58.44;44.27;77.43;;
52872;Laerm;40124;52.198;9.902;2023-12-22T00:10:36;51.48;44.23;76.13;;
52872;Laerm;40124;52.198;9.902;2023-12-22T00:13:01;54.10;44.43;66.08;;
52872;Laerm;40124;52.198;9.902;2023-12-22T00:15:26;54.88;46.28;66.78;;
52872;Laerm;40124;52.198;9.902;2023-12-22T00:17:51;61.53;45.20;78.29;;
52872;Laerm;40124;52.198;9.902;2023-12-22T00:20:17;50.17;44.12;66.60;;
52872;Laerm;40124;52.198;9.902;2023-12-22T00:22:42;59.24;43.49;78.23;;
52872;Laerm;40124;52.198;9.902;2023-12-22T00:25:07;57.49;42.76;77.41;;
52872;Laerm;40124;52.198;9.902;2023-12-22T00:27:34;47.07;43.49;61.38;;
52872;Laerm;40124;52.198;9.902;2023-12-22T00:29:59;50.18;43.09;62.64;;
52872;Laerm;40124;52.198;9.902;2023-12-22T00:32:24;46.41;42.59;59.58;;
52872;Laerm;40124;52.198;9.902;2023-12-22T00:34:49;54.05;43.14;71.23;;
52872;Laerm;40124;52.198;9.902;2023-12-22T00:37:15;46.66;43.09;56.72;;
52872;Laerm;40124;52.198;9.902;2023-12-22T00:39:40;48.00;42.71;62.93;;
52872;Laerm;40124;52.198;9.902;2023-12-22T00:42:05;46.85;42.65;61.77;;
52872;Laerm;40124;52.198;9.902;2023-12-22T00:44:30;45.32;43.05;54.03;;
52872;Laerm;40124;52.198;9.902;2023-12-22T00:46:55;59.52;43.86;79.14;;
52872;Laerm;40124;52.198;9.902;2023-12-22T00:49:21;46.99;43.37;56.43;;
52872;Laerm;40124;52.198;9.902;2023-12-22T00:51:46;47.24;42.09;63.36;;
52872;Laerm;40124;52.198;9.902;2023-12-22T00:54:12;50.47;43.34;60.14;;
52872;Laerm;40124;52.198;9.902;2023-12-22T00:56:37;53.68;43.68;68.28;;
52872;Laerm;40124;52.198;9.902;2023-12-22T00:59:02;49.87;44.97;64.22;;
52872;Laerm;40124;52.198;9.902;2023-12-22T01:01:27;61.66;43.86;81.75;;
52872;Laerm;40124;52.198;9.902;2023-12-22T01:03:53;58.16;44.73;76.42;;
52872;Laerm;40124;52.198;9.902;2023-12-22T01:06:18;59.55;44.15;78.69;;
52872;Laerm;40124;52.198;9.902;2023-12-22T01:08:43;46.43;42.71;54.14;;
52872;Laerm;40124;52.198;9.902;2023-12-22T01:11:08;49.57;43.24;69.05;;
52872;Laerm;40124;52.198;9.902;2023-12-22T01:13:33;52.76;44.58;68.13;;
52872;Laerm;40124;52.198;9.902;2023-12-22T01:15:59;60.29;43.72;80.25;;
52872;Laerm;40124;52.198;9.902;2023-12-22T01:18:24;49.83;44.11;67.43;;
52872;Laerm;40124;52.198;9.902;2023-12-22T01:20:51;51.89;44.62;71.45;;
52872;Laerm;40124;52.198;9.902;2023-12-22T01:23:16;57.22;43.68;76.84;;
52872;Laerm;40124;52.198;9.902;2023-12-22T01:25:41;48.57;43.81;69.44;;
52872;Laerm;40124;52.198;9.902;2023-12-22T01:28:06;58.22;44.04;76.37;;
52872;Laerm;40124;52.198;9.902;2023-12-22T01:30:31;59.80;43.49;79.31;;
52872;Laerm;40124;52.198;9.902;2023-12-22T01:32:57;57.19;43.14;77.30;;
52872;Laerm;40124;52.198;9.902;2023-12-22T01:35:22;61.01;42.29;80.90;;
52872;Laerm;40124;52.198;9.902;2023-12-22T01:37:47;46.80;43.14;62.32;;
52872;Laerm;40124;52.198;9.902;2023-12-22T01:40:13;46.93;43.24;58.03;;
52872;Laerm;40124;52.198;9.902;2023-12-22T01:42:38;58.84;42.98;76.37;;
52872;Laerm;40124;52.198;9.902;2023-12-22T01:45:05;50.08;42.53;64.55;;
52872;Laerm;40124;52.198;9.902;2023-12-22T01:47:30;46.95;41.96;62.85;;
52872;Laerm;40124;52.198;9.902;2023-12-22T01:49:55;49.70;43.81;68.03;;
52872;Laerm;40124;52.198;9.902;2023-12-22T01:52:20;46.34;42.35;55.83;;
52872;Laerm;40124;52.198;9.902;2023-12-22T01:54:47;47.68;43.49;63.17;;
52872;Laerm;40124;52.198;9.902;2023-12-22T01:57:13;57.50;43.44;76.91;;
52872;Laerm;40124;52.198;9.902;2023-12-22T01:59:38;51.25;44.03;71.13;;
52872;Laerm;40124;52.198;9.902;2023-12-22T02:02:04;47.01;43.72;59.68;;
52872;Laerm;40124;52.198;9.902;2023-12-22T02:04:30;54.80;43.58;73.14;;
52872;Laerm;40124;52.198;9.902;2023-12-22T02:06:56;53.22;43.81;73.75;;
52872;Laerm;40124;52.198;9.902;2023-12-22T02:09:21;61.47;44.43;78.77;;
52872;Laerm;40124;52.198;9.902;2023-12-22T02:11:46;60.70;44.90;80.56;;
52872;Laerm;40124;52.198;9.902;2023-12-22T02:14:12;48.76;44.35;67.99;;
52872;Laerm;40124;52.198;9.902;2023-12-22T02:22:03;51.82;44.27;62.67;;
52872;Laerm;40124;52.198;9.902;2023-12-22T02:24:29;48.82;43.54;58.55;;
52872;Laerm;40124;52.198;9.902;2023-12-22T02:26:55;49.61;43.90;62.32;;
52872;Laerm;40124;52.198;9.902;2023-12-22T02:29:22;57.49;44.35;77.78;;
52872;Laerm;40124;52.198;9.902;2023-12-22T02:31:50;54.03;44.31;64.73;;
52872;Laerm;40124;52.198;9.902;2023-12-22T02:34:18;55.76;45.94;65.74;;
52872;Laerm;40124;52.198;9.902;2023-12-22T02:36:44;55.80;48.67;75.08;;
52872;Laerm;40124;52.198;9.902;2023-12-22T02:39:10;53.59;45.23;69.45;;
52872;Laerm;40124;52.198;9.902;2023-12-22T02:41:36;54.61;45.20;71.53;;
52872;Laerm;40124;52.198;9.902;2023-12-22T02:44:01;52.07;45.11;67.08;;
52872;Laerm;40124;52.198;9.902;2023-12-22T02:46:26;62.10;44.51;79.09;;
52872;Laerm;40124;52.198;9.902;2023-12-22T02:48:51;47.91;44.19;56.16;;
52872;Laerm;40124;52.198;9.902;2023-12-22T02:51:17;54.58;43.29;71.28;;
52872;Laerm;40124;52.198;9.902;2023-12-22T02:53:42;60.48;44.07;78.32;;
52872;Laerm;40124;52.198;9.902;2023-12-22T02:56:07;60.45;44.35;80.65;;
52872;Laerm;40124;52.198;9.902;2023-12-22T02:58:32;55.05;45.86;74.95;;
52872;Laerm;40124;52.198;9.902;2023-12-22T03:00:57;60.72;47.36;80.84;;
52872;Laerm;40124;52.198;9.902;2023-12-22T03:03:22;55.03;45.17;70.19;;
52872;Laerm;40124;52.198;9.902;2023-12-22T03:05:47;64.31;45.83;83.11;;
52872;Laerm;40124;52.198;9.902;2023-12-22T03:08:13;61.25;45.80;82.15;;
52872;Laerm;40124;52.198;9.902;2023-12-22T03:10:38;66.26;44.89;84.74;;
52872;Laerm;40124;52.198;9.902;2023-12-22T03:13:03;53.25;45.75;78.39;;
52872;Laerm;40124;52.198;9.902;2023-12-22T03:15:28;62.51;45.94;81.25;;
52872;Laerm;40124;52.198;9.902;2023-12-22T03:17:53;67.69;45.39;87.45;;
52872;Laerm;40124;52.198;9.902;2023-12-22T03:20:18;53.51;46.80;66.87;;
52872;Laerm;40124;52.198;9.902;2023-12-22T03:22:43;60.27;45.91;77.24;;
52872;Laerm;40124;52.198;9.902;2023-12-22T03:25:08;60.62;45.20;81.32;;
52872;Laerm;40124;52.198;9.902;2023-12-22T03:27:34;60.47;45.36;78.33;;
52872;Laerm;40124;52.198;9.902;2023-12-22T03:29:59;63.65;46.87;84.43;;
52872;Laerm;40124;52.198;9.902;2023-12-22T03:32:24;50.82;47.10;58.45;;
52872;Laerm;40124;52.198;9.902;2023-12-22T03:34:49;62.06;46.23;79.21;;
52872;Laerm;40124;52.198;9.902;2023-12-22T03:37:14;61.42;44.62;79.72;;
52872;Laerm;40124;52.198;9.902;2023-12-22T03:39:39;50.24;44.15;61.20;;
52872;Laerm;40124;52.198;9.902;2023-12-22T03:42:04;61.04;43.81;83.00;;
52872;Laerm;40124;52.198;9.902;2023-12-22T03:44:30;62.43;43.29;80.24;;
52872;Laerm;40124;52.198;9.902;2023-12-22T03:46:55;70.40;46.13;88.61;;
52872;Laerm;40124;52.198;9.902;2023-12-22T03:49:21;64.88;43.63;81.92;;
52872;Laerm;40124;52.198;9.902;2023-12-22T03:51:46;65.22;45.99;81.30;;
52872;Laerm;40124;52.198;9.902;2023-12-22T03:54:11;59.56;44.94;79.98;;
52872;Laerm;40124;52.198;9.902;2023-12-22T03:56:36;63.48;44.43;80.01;;
52872;Laerm;40124;52.198;9.902;2023-12-22T03:59:01;70.39;43.54;89.31;;
52872;Laerm;40124;52.198;9.902;2023-12-22T04:01:27;62.44;43.72;85.45;;
52872;Laerm;40124;52.198;9.902;2023-12-22T04:03:52;64.08;44.03;79.74;;
52872;Laerm;40124;52.198;9.902;2023-12-22T04:06:17;67.34;45.11;81.58;;
52872;Laerm;40124;52.198;9.902;2023-12-22T04:08:42;50.64;44.43;60.56;;
52872;Laerm;40124;52.198;9.902;2023-12-22T04:11:07;63.25;46.30;77.76;;
52872;Laerm;40124;52.198;9.902;2023-12-22T04:13:32;60.20;45.39;76.33;;
52872;Laerm;40124;52.198;9.902;2023-12-22T04:15:58;65.23;42.76;82.04;;
52872;Laerm;40124;52.198;9.902;2023-12-22T04:18:23;67.81;42.88;83.53;;
52872;Laerm;40124;52.198;9.902;2023-12-22T04:20:48;67.66;43.63;85.13;;
52872;Laerm;40124;52.198;9.902;2023-12-22T04:23:16;66.85;45.30;79.02;;
52872;Laerm;40124;52.198;9.902;2023-12-22T04:25:41;65.67;48.07;79.89;;
52872;Laerm;40124;52.198;9.902;2023-12-22T04:28:06;64.26;43.54;80.04;;
52872;Laerm;40124;52.198;9.902;2023-12-22T04:30:32;70.12;43.19;87.61;;
52872;Laerm;40124;52.198;9.902;2023-12-22T04:32:57;67.50;45.33;81.60;;
52872;Laerm;40124;52.198;9.902;2023-12-22T04:35:22;67.93;45.72;80.96;;
52872;Laerm;40124;52.198;9.902;2023-12-22T04:37:47;69.52;45.69;83.90;;
52872;Laerm;40124;52.198;9.902;2023-12-22T04:40:12;69.29;48.07;84.12;;
52872;Laerm;40124;52.198;9.902;2023-12-22T04:42:37;68.25;47.12;83.31;;
52872;Laerm;40124;52.198;9.902;2023-12-22T04:45:03;72.04;47.95;87.27;;
52872;Laerm;40124;52.198;9.902;2023-12-22T04:47:28;69.29;48.46;82.30;;
52872;Laerm;40124;52.198;9.902;2023-12-22T04:49:53;67.85;46.43;81.89;;
52872;Laerm;40124;52.198;9.902;2023-12-22T04:52:18;69.75;46.93;83.80;;
52872;Laerm;40124;52.198;9.902;2023-12-22T04:54:43;71.47;49.41;87.88;;
52872;Laerm;40124;52.198;9.902;2023-12-22T04:57:08;60.89;47.98;77.58;;
52872;Laerm;40124;52.198;9.902;2023-12-22T04:59:33;67.20;45.86;81.93;;
52872;Laerm;40124;52.198;9.902;2023-12-22T05:01:58;66.58;46.97;84.47;;
52872;Laerm;40124;52.198;9.902;2023-12-22T05:04:24;70.01;49.64;86.66;;
52872;Laerm;40124;52.198;9.902;2023-12-22T05:06:49;64.72;47.10;78.33;;
52872;Laerm;40124;52.198;9.902;2023-12-22T05:09:14;68.91;50.27;81.02;;
52872;Laerm;40124;52.198;9.902;2023-12-22T05:11:40;68.84;50.20;81.10;;
52872;Laerm;40124;52.198;9.902;2023-12-22T05:14:05;68.46;51.03;81.30;;
52872;Laerm;40124;52.198;9.902;2023-12-22T05:16:30;67.39;51.37;82.42;;
52872;Laerm;40124;52.198;9.902;2023-12-22T05:18:56;68.29;50.01;80.37;;
52872;Laerm;40124;52.198;9.902;2023-12-22T05:21:22;73.36;51.08;86.88;;
52872;Laerm;40124;52.198;9.902;2023-12-22T05:23:48;67.35;48.57;81.47;;
52872;Laerm;40124;52.198;9.902;2023-12-22T05:26:16;67.65;52.78;80.12;;
52872;Laerm;40124;52.198;9.902;2023-12-22T05:28:41;71.99;47.65;87.66;;
52872;Laerm;40124;52.198;9.902;2023-12-22T05:31:06;68.47;46.89;83.00;;
52872;Laerm;40124;52.198;9.902;2023-12-22T05:33:31;66.55;50.10;81.23;;
52872;Laerm;40124;52.198;9.902;2023-12-22T05:35:56;67.56;48.70;80.75;;
52872;Laerm;40124;52.198;9.902;2023-12-22T05:38:22;70.42;49.30;86.66;;
52872;Laerm;40124;52.198;9.902;2023-12-22T05:40:47;70.83;49.71;87.82;;
52872;Laerm;40124;52.198;9.902;2023-12-22T05:43:13;72.58;50.51;86.87;;
52872;Laerm;40124;52.198;9.902;2023-12-22T05:45:38;67.35;47.98;80.42;;
52872;Laerm;40124;52.198;9.902;2023-12-22T05:48:03;71.57;48.76;84.66;;
52872;Laerm;40124;52.198;9.902;2023-12-22T05:50:28;71.70;50.67;84.13;;
52872;Laerm;40124;52.198;9.902;2023-12-22T05:52:54;69.78;49.45;82.90;;
52872;Laerm;40124;52.198;9.902;2023-12-22T05:55:19;71.00;49.74;83.88;;
52872;Laerm;40124;52.198;9.902;2023-12-22T05:57:44;68.59;50.02;79.20;;
52872;Laerm;40124;52.198;9.902;2023-12-22T06:00:09;71.68;47.20;86.17;;
52872;Laerm;40124;52.198;9.902;2023-12-22T06:02:36;70.21;47.77;84.05;;
52872;Laerm;40124;52.198;9.902;2023-12-22T06:05:01;74.27;48.23;88.73;;
52872;Laerm;40124;52.198;9.902;2023-12-22T06:07:26;71.03;49.71;85.68;;
52872;Laerm;40124;52.198;9.902;2023-12-22T06:09:51;70.14;48.81;81.79;;
52872;Laerm;40124;52.198;9.902;2023-12-22T06:12:16;68.49;49.25;80.58;;
52872;Laerm;40124;52.198;9.902;2023-12-22T06:14:42;72.92;52.89;87.28;;
52872;Laerm;40124;52.198;9.902;2023-12-22T06:17:07;72.77;55.81;84.77;;
52872;Laerm;40124;52.198;9.902;2023-12-22T06:19:32;72.64;54.47;84.87;;
52872;Laerm;40124;52.198;9.902;2023-12-22T06:21:57;70.30;50.81;81.15;;
52872;Laerm;40124;52.198;9.902;2023-12-22T06:24:23;72.23;52.36;84.22;;
52872;Laerm;40124;52.198;9.902;2023-12-22T06:26:48;72.45;51.92;84.80;;
52872;Laerm;40124;52.198;9.902;2023-12-22T06:29:13;71.42;53.04;84.79;;
52872;Laerm;40124;52.198;9.902;2023-12-22T06:31:39;72.92;56.23;84.11;;
52872;Laerm;40124;52.198;9.902;2023-12-22T06:34:04;72.26;55.23;81.30;;
52872;Laerm;40124;52.198;9.902;2023-12-22T06:36:30;73.06;50.47;88.56;;
52872;Laerm;40124;52.198;9.902;2023-12-22T06:38:55;72.81;54.96;84.80;;
52872;Laerm;40124;52.198;9.902;2023-12-22T06:41:21;72.19;54.43;82.50;;
52872;Laerm;40124;52.198;9.902;2023-12-22T06:43:46;73.04;56.20;87.54;;
52872;Laerm;40124;52.198;9.902;2023-12-22T06:46:18;74.76;59.65;84.61;;
52872;Laerm;40124;52.198;9.902;2023-12-22T06:48:43;76.22;54.05;88.57;;
52872;Laerm;40124;52.198;9.902;2023-12-22T06:51:18;75.31;57.92;89.49;;
52872;Laerm;40124;52.198;9.902;2023-12-22T06:53:44;73.38;54.44;83.06;;
52872;Laerm;40124;52.198;9.902;2023-12-22T06:58:41;74.87;56.26;86.51;;
52872;Laerm;40124;52.198;9.902;2023-12-22T07:01:06;73.43;53.06;86.70;;
52872;Laerm;40124;52.198;9.902;2023-12-22T07:03:31;75.11;49.85;87.59;;
52872;Laerm;40124;52.198;9.902;2023-12-22T07:05:56;69.09;44.43;81.27;;
52872;Laerm;40124;52.198;9.902;2023-12-22T07:08:21;74.26;47.22;91.90;;
52872;Laerm;40124;52.198;9.902;2023-12-22T07:10:46;74.51;55.25;86.56;;
52872;Laerm;40124;52.198;9.902;2023-12-22T07:13:11;73.95;49.88;88.92;;
52872;Laerm;40124;52.198;9.902;2023-12-22T07:15:37;74.56;51.93;85.24;;
52872;Laerm;40124;52.198;9.902;2023-12-22T07:18:02;73.07;48.81;86.42;;
52872;Laerm;40124;52.198;9.902;2023-12-22T07:20:28;75.06;47.12;88.27;;
52872;Laerm;40124;52.198;9.902;2023-12-22T07:22:53;72.18;51.03;89.32;;
52872;Laerm;40124;52.198;9.902;2023-12-22T07:25:19;72.39;49.58;86.28;;
52872;Laerm;40124;52.198;9.902;2023-12-22T07:27:44;72.55;48.43;85.33;;
52872;Laerm;40124;52.198;9.902;2023-12-22T07:30:10;71.12;47.02;81.75;;
52872;Laerm;40124;52.198;9.902;2023-12-22T07:32:36;73.41;52.03;89.96;;
52872;Laerm;40124;52.198;9.902;2023-12-22T07:35:01;70.67;44.94;84.98;;
52872;Laerm;40124;52.198;9.902;2023-12-22T07:37:27;71.42;48.48;81.44;;
52872;Laerm;40124;52.198;9.902;2023-12-22T07:39:52;72.46;52.14;83.29;;
52872;Laerm;40124;52.198;9.902;2023-12-22T07:42:17;73.35;51.45;87.26;;
52872;Laerm;40124;52.198;9.902;2023-12-22T07:44:42;70.96;50.24;81.00;;
52872;Laerm;40124;52.198;9.902;2023-12-22T07:47:07;71.97;48.18;86.13;;
52872;Laerm;40124;52.198;9.902;2023-12-22T07:49:34;71.49;46.10;84.38;;
52872;Laerm;40124;52.198;9.902;2023-12-22T07:51:59;72.99;53.12;87.10;;
52872;Laerm;40124;52.198;9.902;2023-12-22T07:54:24;72.38;53.77;84.20;;
52872;Laerm;40124;52.198;9.902;2023-12-22T07:56:50;71.87;53.58;82.58;;
52872;Laerm;40124;52.198;9.902;2023-12-22T07:59:16;70.89;53.22;81.41;;
52872;Laerm;40124;52.198;9.902;2023-12-22T08:01:41;68.49;47.79;79.39;;
52872;Laerm;40124;52.198;9.902;2023-12-22T08:04:06;71.61;52.13;84.79;;
52872;Laerm;40124;52.198;9.902;2023-12-22T08:06:31;74.01;53.71;90.74;;
52872;Laerm;40124;52.198;9.902;2023-12-22T08:08:56;71.64;50.99;84.18;;
52872;Laerm;40124;52.198;9.902;2023-12-22T08:11:21;73.48;57.50;86.48;;
52872;Laerm;40124;52.198;9.902;2023-12-22T08:13:50;71.62;50.73;85.14;;
52872;Laerm;40124;52.198;9.902;2023-12-22T08:16:15;72.62;53.18;86.56;;
52872;Laerm;40124;52.198;9.902;2023-12-22T08:18:40;71.92;54.43;85.67;;
52872;Laerm;40124;52.198;9.902;2023-12-22T08:21:05;69.55;52.08;82.09;;
52872;Laerm;40124;52.198;9.902;2023-12-22T08:23:31;69.71;52.14;82.12;;
52872;Laerm;40124;52.198;9.902;2023-12-22T08:25:56;72.49;48.81;88.33;;
52872;Laerm;40124;52.198;9.902;2023-12-22T08:28:23;71.35;52.54;82.69;;
52872;Laerm;40124;52.198;9.902;2023-12-22T08:30:48;71.22;49.14;80.57;;
52872;Laerm;40124;52.198;9.902;2023-12-22T08:33:13;70.30;47.32;82.20;;
52872;Laerm;40124;52.198;9.902;2023-12-22T08:35:38;71.58;50.23;88.17;;
52872;Laerm;40124;52.198;9.902;2023-12-22T08:38:03;71.56;50.51;85.42;;
52872;Laerm;40124;52.198;9.902;2023-12-22T08:40:28;71.59;53.68;84.97;;
52872;Laerm;40124;52.198;9.902;2023-12-22T08:42:54;71.65;49.36;87.60;;
52872;Laerm;40124;52.198;9.902;2023-12-22T08:45:26;73.64;51.77;87.35;;
52872;Laerm;40124;52.198;9.902;2023-12-22T08:47:53;73.09;49.24;85.90;;
52872;Laerm;40124;52.198;9.902;2023-12-22T08:50:18;71.47;50.05;85.69;;
52872;Laerm;40124;52.198;9.902;2023-12-22T08:52:43;72.17;54.07;84.26;;
52872;Laerm;40124;52.198;9.902;2023-12-22T08:55:08;76.41;56.96;89.20;;
52872;Laerm;40124;52.198;9.902;2023-12-22T08:57:33;78.86;65.81;88.16;;
52872;Laerm;40124;52.198;9.902;2023-12-22T08:59:58;74.34;61.72;83.15;;
52872;Laerm;40124;52.198;9.902;2023-12-22T09:02:24;72.50;51.95;85.88;;
52872;Laerm;40124;52.198;9.902;2023-12-22T09:04:49;71.05;52.24;86.38;;
52872;Laerm;40124;52.198;9.902;2023-12-22T09:07:15;73.64;54.15;87.39;;
52872;Laerm;40124;52.198;9.902;2023-12-22T09:09:41;72.39;49.83;86.84;;
52872;Laerm;40124;52.198;9.902;2023-12-22T09:12:06;73.32;60.30;86.55;;
52872;Laerm;40124;52.198;9.902;2023-12-22T09:14:31;73.50;51.14;90.35;;
52872;Laerm;40124;52.198;9.902;2023-12-22T09:16:56;69.92;49.55;80.46;;
52872;Laerm;40124;52.198;9.902;2023-12-22T09:19:21;71.67;52.97;80.63;;
52872;Laerm;40124;52.198;9.902;2023-12-22T09:21:46;70.98;48.64;84.20;;
52872;Laerm;40124;52.198;9.902;2023-12-22T09:24:12;72.56;54.19;82.84;;
52872;Laerm;40124;52.198;9.902;2023-12-22T09:26:37;71.84;52.34;89.19;;
52872;Laerm;40124;52.198;9.902;2023-12-22T09:29:02;70.89;55.20;80.57;;
52872;Laerm;40124;52.198;9.902;2023-12-22T09:31:27;70.67;54.95;81.00;;
52872;Laerm;40124;52.198;9.902;2023-12-22T09:33:52;70.84;51.08;82.87;;
52872;Laerm;40124;52.198;9.902;2023-12-22T09:36:18;69.71;53.77;80.89;;
52872;Laerm;40124;52.198;9.902;2023-12-22T09:38:43;69.37;46.87;81.97;;
52872;Laerm;40124;52.198;9.902;2023-12-22T09:41:08;71.23;46.62;85.75;;
52872;Laerm;40124;52.198;9.902;2023-12-22T09:43:35;69.57;52.10;80.40;;
52872;Laerm;40124;52.198;9.902;2023-12-22T09:46:03;71.49;45.20;85.73;;
52872;Laerm;40124;52.198;9.902;2023-12-22T09:48:29;69.02;48.40;81.59;;
52872;Laerm;40124;52.198;9.902;2023-12-22T09:50:55;71.44;50.98;84.33;;
52872;Laerm;40124;52.198;9.902;2023-12-22T09:53:20;72.09;47.16;90.86;;
52872;Laerm;40124;52.198;9.902;2023-12-22T09:55:46;67.56;45.94;80.70;;
52872;Laerm;40124;52.198;9.902;2023-12-22T09:58:12;67.92;46.80;80.83;;
52872;Laerm;40124;52.198;9.902;2023-12-22T10:00:39;69.80;53.63;80.97;;
52872;Laerm;40124;52.198;9.902;2023-12-22T10:03:05;69.99;49.03;84.67;;
52872;Laerm;40124;52.198;9.902;2023-12-22T10:05:31;68.46;47.52;80.59;;
52872;Laerm;40124;52.198;9.902;2023-12-22T10:07:56;71.08;55.36;91.92;;
52872;Laerm;40124;52.198;9.902;2023-12-22T10:10:21;67.96;50.43;79.86;;
52872;Laerm;40124;52.198;9.902;2023-12-22T10:12:48;67.94;45.20;80.75;;
52872;Laerm;40124;52.198;9.902;2023-12-22T10:15:14;65.52;44.15;79.57;;
52872;Laerm;40124;52.198;9.902;2023-12-22T10:17:40;69.52;54.77;80.02;;
52872;Laerm;40124;52.198;9.902;2023-12-22T10:20:06;69.78;50.46;83.89;;
52872;Laerm;40124;52.198;9.902;2023-12-22T10:22:31;72.22;48.94;87.95;;
52872;Laerm;40124;52.198;9.902;2023-12-22T10:24:56;69.61;47.98;80.31;;
52872;Laerm;40124;52.198;9.902;2023-12-22T10:27:21;75.02;54.96;85.63;;
52872;Laerm;40124;52.198;9.902;2023-12-22T10:29:49;74.06;52.45;88.07;;
52872;Laerm;40124;52.198;9.902;2023-12-22T10:32:15;67.61;45.54;78.40;;
52872;Laerm;40124;52.198;9.902;2023-12-22T10:34:40;70.14;51.18;81.69;;
52872;Laerm;40124;52.198;9.902;2023-12-22T10:37:06;69.39;45.57;80.71;;
52872;Laerm;40124;52.198;9.902;2023-12-22T10:39:31;70.23;47.88;86.81;;
52872;Laerm;40124;52.198;9.902;2023-12-22T10:41:57;70.16;50.98;82.13;;
52872;Laerm;40124;52.198;9.902;2023-12-22T10:44:26;69.99;48.25;80.59;;
52872;Laerm;40124;52.198;9.902;2023-12-22T10:46:51;70.44;52.34;82.15;;
52872;Laerm;40124;52.198;9.902;2023-12-22T10:49:17;67.08;48.31;78.31;;
52872;Laerm;40124;52.198;9.902;2023-12-22T10:51:42;70.75;48.54;85.64;;
52872;Laerm;40124;52.198;9.902;2023-12-22T10:54:07;67.81;49.51;78.12;;
52872;Laerm;40124;52.198;9.902;2023-12-22T10:56:32;70.51;48.74;84.67;;
52872;Laerm;40124;52.198;9.902;2023-12-22T10:58:58;69.09;52.72;79.31;;
52872;Laerm;40124;52.198;9.902;2023-12-22T11:01:23;69.50;49.72;82.73;;
52872;Laerm;40124;52.198;9.902;2023-12-22T11:03:53;70.42;50.23;84.23;;
52872;Laerm;40124;52.198;9.902;2023-12-22T11:06:21;66.73;47.38;80.50;;
52872;Laerm;40124;52.198;9.902;2023-12-22T11:08:47;72.88;55.18;81.94;;
52872;Laerm;40124;52.198;9.902;2023-12-22T11:11:19;75.64;53.77;85.10;;
52872;Laerm;40124;52.198;9.902;2023-12-22T11:13:45;70.15;47.96;80.95;;
52872;Laerm;40124;52.198;9.902;2023-12-22T11:16:13;72.87;50.09;85.73;;
52872;Laerm;40124;52.198;9.902;2023-12-22T11:18:39;68.80;48.73;83.50;;
52872;Laerm;40124;52.198;9.902;2023-12-22T11:21:05;71.22;52.63;81.13;;
52872;Laerm;40124;52.198;9.902;2023-12-22T11:23:31;69.90;52.17;80.12;;
52872;Laerm;40124;52.198;9.902;2023-12-22T11:25:57;69.75;49.04;81.89;;
52872;Laerm;40124;52.198;9.902;2023-12-22T11:28:23;71.58;50.41;82.84;;
52872;Laerm;40124;52.198;9.902;2023-12-22T11:30:50;69.50;49.32;80.19;;
52872;Laerm;40124;52.198;9.902;2023-12-22T11:33:17;70.37;48.13;83.52;;
52872;Laerm;40124;52.198;9.902;2023-12-22T11:35:42;71.99;50.60;85.45;;
52872;Laerm;40124;52.198;9.902;2023-12-22T11:38:07;72.60;55.49;87.58;;
52872;Laerm;40124;52.198;9.902;2023-12-22T11:40:35;72.29;53.73;84.55;;
52872;Laerm;40124;52.198;9.902;2023-12-22T11:43:00;70.97;52.78;81.30;;
52872;Laerm;40124;52.198;9.902;2023-12-22T11:45:26;71.43;53.34;85.20;;
52872;Laerm;40124;52.198;9.902;2023-12-22T11:47:54;71.75;51.11;83.44;;
52872;Laerm;40124;52.198;9.902;2023-12-22T11:50:27;70.85;50.10;82.65;;
52872;Laerm;40124;52.198;9.902;2023-12-22T11:52:53;70.04;48.00;81.78;;
52872;Laerm;40124;52.198;9.902;2023-12-22T11:55:18;70.58;47.18;81.33;;
52872;Laerm;40124;52.198;9.902;2023-12-22T12:00:47;72.84;52.25;88.56;;
52872;Laerm;40124;52.198;9.902;2023-12-22T12:03:17;72.07;53.34;86.18;;
52872;Laerm;40124;52.198;9.902;2023-12-22T12:05:43;72.97;52.62;83.48;;
52872;Laerm;40124;52.198;9.902;2023-12-22T12:08:08;72.34;53.41;81.89;;
52872;Laerm;40124;52.198;9.902;2023-12-22T12:13:08;71.98;54.52;81.62;;
52872;Laerm;40124;52.198;9.902;2023-12-22T12:15:33;72.15;54.92;83.73;;
52872;Laerm;40124;52.198;9.902;2023-12-22T12:17:59;73.19;50.59;87.89;;
52872;Laerm;40124;52.198;9.902;2023-12-22T12:20:25;70.95;49.93;84.68;;
52872;Laerm;40124;52.198;9.902;2023-12-22T12:22:50;72.34;52.54;82.23;;
52872;Laerm;40124;52.198;9.902;2023-12-22T12:25:16;71.79;45.69;85.66;;
52872;Laerm;40124;52.198;9.902;2023-12-22T12:27:41;70.58;47.65;86.02;;
52872;Laerm;40124;52.198;9.902;2023-12-22T12:30:07;72.57;53.04;84.04;;
52872;Laerm;40124;52.198;9.902;2023-12-22T12:32:35;70.65;49.12;81.77;;
52872;Laerm;40124;52.198;9.902;2023-12-22T12:35:01;71.60;51.28;81.26;;
52872;Laerm;40124;52.198;9.902;2023-12-22T12:37:27;72.74;52.72;81.71;;
52872;Laerm;40124;52.198;9.902;2023-12-22T12:39:52;72.93;50.72;84.86;;
52872;Laerm;40124;52.198;9.902;2023-12-22T12:42:21;71.65;49.20;89.01;;
52872;Laerm;40124;52.198;9.902;2023-12-22T12:44:47;73.02;52.02;83.26;;
52872;Laerm;40124;52.198;9.902;2023-12-22T12:47:14;73.08;55.45;83.19;;
52872;Laerm;40124;52.198;9.902;2023-12-22T12:49:40;72.03;53.67;82.59;;
52872;Laerm;40124;52.198;9.902;2023-12-22T12:52:05;71.76;49.18;87.20;;
52872;Laerm;40124;52.198;9.902;2023-12-22T12:54:31;72.01;53.49;81.75;;
52872;Laerm;40124;52.198;9.902;2023-12-22T12:56:56;71.34;48.21;84.83;;
52872;Laerm;40124;52.198;9.902;2023-12-22T12:59:21;73.58;46.10;89.34;;
52872;Laerm;40124;52.198;9.902;2023-12-22T13:01:47;70.23;44.58;82.56;;
52872;Laerm;40124;52.198;9.902;2023-12-22T13:04:13;70.93;47.10;84.63;;
52872;Laerm;40124;52.198;9.902;2023-12-22T13:09:09;71.98;52.47;82.10;;
52872;Laerm;40124;52.198;9.902;2023-12-22T13:11:34;71.27;47.00;81.05;;
52872;Laerm;40124;52.198;9.902;2023-12-22T13:14:00;71.12;52.83;81.70;;
52872;Laerm;40124;52.198;9.902;2023-12-22T13:16:25;71.65;50.55;81.94;;
52872;Laerm;40124;52.198;9.902;2023-12-22T13:18:57;71.44;48.13;83.98;;
52872;Laerm;40124;52.198;9.902;2023-12-22T13:21:23;71.81;50.06;81.78;;
52872;Laerm;40124;52.198;9.902;2023-12-22T13:24:07;72.35;45.48;86.55;;
52872;Laerm;40124;52.198;9.902;2023-12-22T13:26:32;71.20;45.01;81.25;;
52872;Laerm;40124;52.198;9.902;2023-12-22T13:28:57;70.64;50.46;80.62;;
52872;Laerm;40124;52.198;9.902;2023-12-22T13:31:24;72.70;49.32;83.11;;
52872;Laerm;40124;52.198;9.902;2023-12-22T13:33:49;71.09;49.20;81.76;;
52872;Laerm;40124;52.198;9.902;2023-12-22T13:36:14;70.45;47.34;81.08;;
52872;Laerm;40124;52.198;9.902;2023-12-22T13:38:44;73.11;45.83;87.62;;
52872;Laerm;40124;52.198;9.902;2023-12-22T13:41:09;71.74;45.86;83.23;;
52872;Laerm;40124;52.198;9.902;2023-12-22T13:43:35;69.87;45.01;80.28;;
52872;Laerm;40124;52.198;9.902;2023-12-22T13:46:00;70.98;46.95;82.01;;
52872;Laerm;40124;52.198;9.902;2023-12-22T13:48:25;73.05;50.75;83.99;;
52872;Laerm;40124;52.198;9.902;2023-12-22T13:50:57;71.72;50.61;81.43;;